GEC925 EDDF-ENTC

Flight info

Callsign GEC925
Flight time 2h 37m
Altitude 35000
Route MARUN2D/07C MARUN Y150 TOLGI DCT AGATI DCT GITER DCT KOR DCT ROKAM/N0464F360 L997 LASLI/N0461F350 DCT BUGAX/N0466F360 DCT GUBAV/N0471F370 DCT PENNO DCT ATWEG
Aircraft B77L/H-SDE1E2E3FGHIJ2J3J4J5M1RWXY/LB1D1

Departure

Time 2026-04-13 14:25
Airport Frankfurt Main Airport (EDDF)

Arrival

Time 2026-04-13 17:03
Airport Tromsø Airport (ENTC)
Time Latitude Longitude Altitude Speed Heading
2026-04-13 14:05 50.04064 8.54502 360 ft 0 kts 249°
2026-04-13 14:17 50.04067 8.54512 360 ft 2 kts 249°
2026-04-13 14:18 50.04073 8.54538 358 ft 3 kts 249°
2026-04-13 14:18 50.04080 8.54565 361 ft 3 kts 249°
2026-04-13 14:18 50.04086 8.54592 358 ft 3 kts 233°
2026-04-13 14:18 50.04100 8.54610 361 ft 3 kts 186°
2026-04-13 14:19 50.04113 8.54608 361 ft 0 kts 159°
2026-04-13 14:21 50.04083 8.54627 359 ft 8 kts 158°
2026-04-13 14:21 50.04030 8.54659 356 ft 8 kts 159°
2026-04-13 14:21 50.03976 8.54682 357 ft 8 kts 179°
2026-04-13 14:22 50.03930 8.54631 356 ft 11 kts 236°
2026-04-13 14:22 50.03894 8.54497 359 ft 14 kts 250°
2026-04-13 14:22 50.03862 8.54378 361 ft 10 kts 238°
2026-04-13 14:22 50.03808 8.54341 356 ft 8 kts 176°
2026-04-13 14:23 50.03772 8.54353 359 ft 3 kts 161°
2026-04-13 14:23 50.03740 8.54371 359 ft 8 kts 160°
2026-04-13 14:23 50.03680 8.54358 361 ft 9 kts 217°
2026-04-13 14:23 50.03622 8.54314 359 ft 10 kts 184°
2026-04-13 14:24 50.03558 8.54340 356 ft 8 kts 161°
2026-04-13 14:24 50.03509 8.54366 361 ft 6 kts 160°
2026-04-13 14:24 50.03493 8.54422 358 ft 6 kts 86°
2026-04-13 14:24 50.03500 8.54456 358 ft 0 kts 70°
2026-04-13 14:25 50.03501 8.54463 358 ft 9 kts 70°
2026-04-13 14:25 50.03648 8.55078 359 ft 114 kts 70°
2026-04-13 14:25 50.04076 8.56657 597 ft 186 kts 65°
2026-04-13 14:25 50.04548 8.58506 1937 ft 187 kts 69°
2026-04-13 14:26 50.04969 8.60475 2862 ft 202 kts 70°
2026-04-13 14:26 50.05443 8.62709 3148 ft 232 kts 70°
2026-04-13 14:26 50.05989 8.65230 3557 ft 257 kts 71°
2026-04-13 14:26 50.06576 8.67898 4391 ft 265 kts 71°
2026-04-13 14:27 50.07379 8.70586 4889 ft 289 kts 52°
2026-04-13 14:27 50.09015 8.72570 5373 ft 302 kts 22°
2026-04-13 14:27 50.10854 8.73696 7034 ft 276 kts 21°
2026-04-13 14:27 50.12653 8.74805 7996 ft 284 kts 23°
2026-04-13 14:28 50.14514 8.76004 8722 ft 295 kts 24°
2026-04-13 14:28 50.16428 8.77271 9560 ft 303 kts 25°
2026-04-13 14:28 50.18391 8.78589 10346 ft 311 kts 25°
2026-04-13 14:28 50.20440 8.79977 10744 ft 335 kts 25°
2026-04-13 14:29 50.22670 8.81492 10973 ft 363 kts 25°
2026-04-13 14:29 50.25052 8.83112 11508 ft 380 kts 24°
2026-04-13 14:29 50.27545 8.84517 12182 ft 386 kts 11°
2026-04-13 14:29 50.30246 8.84497 13000 ft 387 kts 350°
2026-04-13 14:30 50.32923 8.83793 13771 ft 395 kts 351°
2026-04-13 14:30 50.35667 8.83161 14551 ft 401 kts 351°
2026-04-13 14:30 50.38445 8.82563 15392 ft 405 kts 352°
2026-04-13 14:30 50.41254 8.81968 16196 ft 410 kts 352°
2026-04-13 14:31 50.44108 8.81364 16969 ft 416 kts 352°
2026-04-13 14:31 50.47000 8.80750 17739 ft 422 kts 352°
2026-04-13 14:31 50.49940 8.80124 18452 ft 428 kts 352°
2026-04-13 14:31 50.52911 8.79489 19101 ft 434 kts 351°
2026-04-13 14:32 50.55928 8.78843 19749 ft 440 kts 351°
2026-04-13 14:32 50.58963 8.78036 20372 ft 444 kts 345°
2026-04-13 14:32 50.61913 8.76739 21056 ft 449 kts 340°
2026-04-13 14:32 50.64907 8.75206 21745 ft 455 kts 339°
2026-04-13 14:33 50.67940 8.73688 22467 ft 461 kts 340°
2026-04-13 14:33 50.71036 8.72236 23159 ft 467 kts 341°
2026-04-13 14:33 50.74178 8.70811 23744 ft 473 kts 341°
2026-04-13 14:33 50.77408 8.69828 24155 ft 479 kts 356°
2026-04-13 14:34 50.80735 8.70477 24627 ft 486 kts 17°
2026-04-13 14:34 50.83820 8.72645 25283 ft 485 kts 32°
2026-04-13 14:34 50.86483 8.75891 25933 ft 482 kts 49°
2026-04-13 14:34 50.88541 8.80044 26471 ft 480 kts 58°
2026-04-13 14:35 50.90456 8.84402 26957 ft 485 kts 58°
2026-04-13 14:35 50.92449 8.88762 27455 ft 489 kts 56°
2026-04-13 14:35 50.94502 8.93085 28056 ft 492 kts 56°
2026-04-13 14:35 50.96570 8.97407 28624 ft 494 kts 56°
2026-04-13 14:36 50.98647 9.01770 29174 ft 496 kts 56°
2026-04-13 14:36 51.00729 9.06164 29650 ft 499 kts 56°
2026-04-13 14:36 51.02819 9.10590 30104 ft 502 kts 56°
2026-04-13 14:36 51.04909 9.15023 30644 ft 500 kts 56°
2026-04-13 14:37 51.06993 9.19447 31256 ft 497 kts 57°
2026-04-13 14:37 51.09183 9.23703 31749 ft 499 kts 48°
2026-04-13 14:37 51.11876 9.27123 32203 ft 505 kts 34°
2026-04-13 14:37 51.15034 9.29620 32754 ft 509 kts 22°
2026-04-13 14:38 51.18460 9.31046 33265 ft 509 kts 11°
2026-04-13 14:38 51.21956 9.32035 33705 ft 510 kts 11°
2026-04-13 14:38 51.25442 9.33080 34098 ft 511 kts 12°
2026-04-13 14:38 51.28927 9.34233 34465 ft 510 kts 13°
2026-04-13 14:39 51.32398 9.35440 34851 ft 510 kts 13°
2026-04-13 14:39 51.35874 9.36665 34951 ft 514 kts 13°
2026-04-13 14:39 51.42855 9.39131 34934 ft 511 kts 13°
2026-04-13 14:40 51.49732 9.41550 34950 ft 509 kts 13°
2026-04-13 14:40 51.56654 9.43987 34932 ft 509 kts 13°
2026-04-13 14:41 51.63574 9.46430 34949 ft 509 kts 13°
2026-04-13 14:41 51.70497 9.48883 34942 ft 510 kts 13°
2026-04-13 14:42 51.77437 9.51351 34969 ft 514 kts 13°
2026-04-13 14:42 51.80943 9.52601 35183 ft 516 kts 13°
2026-04-13 14:42 51.84449 9.53869 35561 ft 515 kts 14°
2026-04-13 14:43 51.87909 9.55301 36020 ft 513 kts 16°
2026-04-13 14:43 51.91349 9.56862 36456 ft 513 kts 17°
2026-04-13 14:43 51.94778 9.58469 36826 ft 513 kts 17°
2026-04-13 14:43 51.98214 9.60084 36908 ft 515 kts 17°
2026-04-13 14:44 52.05117 9.63273 36945 ft 515 kts 16°
2026-04-13 14:44 52.11947 9.66367 36972 ft 511 kts 16°
2026-04-13 14:45 52.18798 9.69463 36958 ft 511 kts 15°
2026-04-13 14:45 52.25664 9.72581 36934 ft 513 kts 16°
2026-04-13 14:46 52.32519 9.75706 36961 ft 511 kts 16°
2026-04-13 14:46 52.39359 9.78837 36961 ft 510 kts 15°
2026-04-13 14:47 52.46196 9.81977 36977 ft 511 kts 15°
2026-04-13 14:47 52.53059 9.85139 36982 ft 513 kts 15°
2026-04-13 14:48 52.59951 9.88324 36969 ft 514 kts 15°
2026-04-13 14:48 52.66850 9.91523 36971 ft 515 kts 15°
2026-04-13 14:49 52.73717 9.94717 36973 ft 516 kts 15°
2026-04-13 14:49 52.80631 9.97944 36970 ft 517 kts 15°
2026-04-13 14:50 52.86429 10.00659 36970 ft 517 kts 15°
2026-04-13 14:50 52.93348 10.03940 36963 ft 517 kts 17°
2026-04-13 14:51 53.00156 10.07564 36968 ft 517 kts 18°
2026-04-13 14:51 53.06982 10.11349 36970 ft 517 kts 18°
2026-04-13 14:52 53.13813 10.15104 36979 ft 516 kts 18°
2026-04-13 14:52 53.20646 10.18827 36990 ft 516 kts 18°
2026-04-13 14:53 53.27465 10.22541 37002 ft 515 kts 18°
2026-04-13 14:53 53.34283 10.26269 37000 ft 515 kts 18°
2026-04-13 14:54 53.41096 10.30010 37003 ft 515 kts 18°
2026-04-13 14:54 53.47910 10.33765 37007 ft 515 kts 18°
2026-04-13 14:55 53.54719 10.37530 37019 ft 515 kts 18°
2026-04-13 14:55 53.61489 10.41286 37008 ft 515 kts 18°
2026-04-13 14:56 53.68288 10.45071 37017 ft 515 kts 18°
2026-04-13 14:56 53.75089 10.48870 37031 ft 515 kts 18°
2026-04-13 14:57 53.81909 10.52693 37031 ft 517 kts 18°
2026-04-13 14:58 53.92151 10.58458 37031 ft 516 kts 18°
2026-04-13 14:58 53.98965 10.62310 37007 ft 516 kts 18°
2026-04-13 14:59 54.05765 10.66168 37031 ft 514 kts 18°
2026-04-13 14:59 54.12509 10.70007 37019 ft 514 kts 18°
2026-04-13 15:00 54.19285 10.73878 37039 ft 513 kts 18°
2026-04-13 15:00 54.26060 10.77760 37042 ft 513 kts 18°
2026-04-13 15:01 54.32827 10.81655 37043 ft 513 kts 18°
2026-04-13 15:01 54.39596 10.85563 37047 ft 513 kts 18°
2026-04-13 15:02 54.46362 10.89481 37057 ft 513 kts 18°
2026-04-13 15:02 54.53100 10.93398 37043 ft 515 kts 18°
2026-04-13 15:03 54.59904 10.97367 37041 ft 515 kts 18°
2026-04-13 15:03 54.66646 11.01601 37050 ft 515 kts 23°
2026-04-13 15:04 54.73179 11.06691 37051 ft 515 kts 24°
2026-04-13 15:04 54.79682 11.11894 37065 ft 515 kts 24°
2026-04-13 15:05 54.86206 11.17066 37069 ft 515 kts 24°
2026-04-13 15:05 54.92728 11.22210 37066 ft 515 kts 24°
2026-04-13 15:06 54.99219 11.27338 37068 ft 515 kts 24°
2026-04-13 15:06 55.05741 11.32515 37080 ft 515 kts 24°
2026-04-13 15:07 55.12271 11.37719 37080 ft 515 kts 24°
2026-04-13 15:07 55.18791 11.42934 37088 ft 515 kts 24°
2026-04-13 15:08 55.25315 11.48172 37092 ft 515 kts 24°
2026-04-13 15:08 55.31830 11.53422 37093 ft 515 kts 24°
2026-04-13 15:09 55.38306 11.58659 37104 ft 515 kts 24°
2026-04-13 15:09 55.44830 11.63839 37111 ft 514 kts 20°
2026-04-13 15:10 55.51566 11.68079 37119 ft 513 kts 17°
2026-04-13 15:10 55.58351 11.72142 37138 ft 514 kts 17°
2026-04-13 15:11 55.65121 11.76265 37134 ft 514 kts 18°
2026-04-13 15:11 55.71876 11.80453 37140 ft 513 kts 18°
2026-04-13 15:12 55.78570 11.84633 37143 ft 513 kts 18°
2026-04-13 15:12 55.85310 11.88853 37131 ft 513 kts 18°
2026-04-13 15:13 55.92039 11.93078 37128 ft 512 kts 18°
2026-04-13 15:13 55.98761 11.97313 37134 ft 512 kts 18°
2026-04-13 15:14 56.05479 12.01560 37126 ft 511 kts 18°
2026-04-13 15:14 56.12180 12.05816 37136 ft 510 kts 18°
2026-04-13 15:15 56.18878 12.10085 37146 ft 510 kts 18°
2026-04-13 15:15 56.25523 12.14333 37147 ft 510 kts 17°
2026-04-13 15:16 56.32389 12.17032 37149 ft 503 kts
2026-04-13 15:16 56.39305 12.16505 37146 ft 494 kts 346°
2026-04-13 15:17 56.46097 12.14404 37159 ft 496 kts 346°
2026-04-13 15:17 56.52936 12.12452 37177 ft 499 kts 347°
2026-04-13 15:18 56.59810 12.10553 37160 ft 500 kts 347°
2026-04-13 15:18 56.66710 12.08611 37155 ft 501 kts 347°
2026-04-13 15:19 56.73563 12.06672 37166 ft 502 kts 347°
2026-04-13 15:19 56.80466 12.04715 37170 ft 502 kts 347°
2026-04-13 15:20 56.87378 12.02749 37162 ft 501 kts 347°
2026-04-13 15:20 56.94298 12.01613 37171 ft 504 kts 356°
2026-04-13 15:21 57.01320 12.02608 37176 ft 506 kts
2026-04-13 15:21 57.08317 12.04100 37184 ft 506 kts
2026-04-13 15:22 57.15310 12.05567 37175 ft 505 kts
2026-04-13 15:22 57.22307 12.06969 37180 ft 505 kts
2026-04-13 15:23 57.29297 12.08342 37181 ft 504 kts
2026-04-13 15:23 57.36274 12.09715 37195 ft 504 kts
2026-04-13 15:24 57.43217 12.11091 37194 ft 504 kts
2026-04-13 15:24 57.50197 12.12481 37193 ft 505 kts
2026-04-13 15:25 57.57197 12.13882 37198 ft 505 kts
2026-04-13 15:25 57.64188 12.15286 37207 ft 505 kts
2026-04-13 15:26 57.71142 12.16688 37221 ft 505 kts
2026-04-13 15:26 57.78157 12.18108 37219 ft 506 kts
2026-04-13 15:27 57.85180 12.19536 37202 ft 507 kts
2026-04-13 15:27 57.92209 12.20971 37209 ft 507 kts
2026-04-13 15:28 57.99188 12.22400 37203 ft 508 kts
2026-04-13 15:28 58.06208 12.23843 37217 ft 507 kts
2026-04-13 15:29 58.13232 12.25294 37229 ft 507 kts
2026-04-13 15:29 58.20263 12.26751 37232 ft 507 kts
2026-04-13 15:30 58.27284 12.28212 37232 ft 507 kts
2026-04-13 15:30 58.34295 12.29677 37232 ft 507 kts
2026-04-13 15:31 58.41304 12.31147 37227 ft 506 kts
2026-04-13 15:31 58.48259 12.32612 37230 ft 506 kts
2026-04-13 15:32 58.55263 12.34092 37228 ft 506 kts
2026-04-13 15:32 58.62275 12.35580 37233 ft 506 kts
2026-04-13 15:33 58.69290 12.37076 37236 ft 507 kts
2026-04-13 15:33 58.76309 12.38578 37241 ft 507 kts
2026-04-13 15:34 58.85655 12.40587 37248 ft 507 kts
2026-04-13 15:34 58.92635 12.42095 37254 ft 507 kts
2026-04-13 15:35 58.99663 12.43620 37252 ft 508 kts
2026-04-13 15:35 59.06686 12.45150 37262 ft 508 kts
2026-04-13 15:36 59.13719 12.46689 37260 ft 508 kts
2026-04-13 15:36 59.20746 12.48233 37264 ft 507 kts
2026-04-13 15:37 59.27755 12.49778 37276 ft 507 kts
2026-04-13 15:37 59.34729 12.51323 37279 ft 507 kts
2026-04-13 15:38 59.41745 12.52884 37267 ft 507 kts
2026-04-13 15:38 59.48757 12.54448 37277 ft 507 kts
2026-04-13 15:39 59.55759 12.56018 37275 ft 506 kts
2026-04-13 15:39 59.62764 12.57596 37273 ft 506 kts
2026-04-13 15:40 59.69775 12.59182 37284 ft 506 kts
2026-04-13 15:40 59.76733 12.60763 37274 ft 506 kts
2026-04-13 15:41 59.83732 12.62359 37283 ft 506 kts
2026-04-13 15:41 59.90742 12.63962 37291 ft 506 kts
2026-04-13 15:42 59.97744 12.65574 37301 ft 506 kts
2026-04-13 15:42 60.04744 12.67191 37311 ft 506 kts
2026-04-13 15:43 60.11747 12.68815 37311 ft 506 kts
2026-04-13 15:43 60.18748 12.70446 37314 ft 507 kts
2026-04-13 15:44 60.25758 12.72087 37302 ft 507 kts
2026-04-13 15:44 60.32761 12.73732 37299 ft 506 kts
2026-04-13 15:45 60.39760 12.75384 37300 ft 507 kts
2026-04-13 15:45 60.46721 12.77032 37294 ft 507 kts
2026-04-13 15:46 60.53727 12.78699 37304 ft 506 kts
2026-04-13 15:46 60.60743 12.80378 37304 ft 507 kts
2026-04-13 15:47 60.67746 12.82060 37299 ft 507 kts
2026-04-13 15:47 60.74764 12.83751 37305 ft 507 kts
2026-04-13 15:48 60.81734 12.85440 37304 ft 508 kts
2026-04-13 15:48 60.88749 12.87147 37296 ft 508 kts
2026-04-13 15:49 60.95769 12.88861 37296 ft 507 kts
2026-04-13 15:49 61.02784 12.90530 37299 ft 507 kts
2026-04-13 15:50 61.09815 12.91856 37293 ft 506 kts
2026-04-13 15:50 61.16840 12.93085 37298 ft 506 kts
2026-04-13 15:51 61.23868 12.94362 37307 ft 506 kts
2026-04-13 15:51 61.30886 12.95680 37317 ft 506 kts
2026-04-13 15:52 61.37862 12.97008 37308 ft 506 kts
2026-04-13 15:52 61.44880 12.98349 37319 ft 507 kts
2026-04-13 15:53 61.51921 12.99697 37317 ft 507 kts
2026-04-13 15:53 61.58964 13.01051 37321 ft 508 kts
2026-04-13 15:54 61.66015 13.02413 37319 ft 509 kts
2026-04-13 15:54 61.73034 13.03774 37323 ft 510 kts
2026-04-13 15:55 61.80107 13.05152 37331 ft 511 kts
2026-04-13 15:55 61.87193 13.06541 37320 ft 512 kts
2026-04-13 15:56 61.94286 13.07936 37335 ft 512 kts
2026-04-13 15:56 62.01384 13.09340 37326 ft 513 kts
2026-04-13 15:57 62.08492 13.10751 37330 ft 513 kts
2026-04-13 15:57 62.15605 13.12170 37354 ft 513 kts
2026-04-13 15:58 62.22740 13.13598 37342 ft 515 kts
2026-04-13 15:58 62.29884 13.15035 37339 ft 516 kts
2026-04-13 15:59 62.37048 13.16486 37332 ft 518 kts
2026-04-13 15:59 62.44232 13.17949 37339 ft 518 kts
2026-04-13 16:00 62.51429 13.19420 37330 ft 519 kts
2026-04-13 16:00 62.58570 13.20886 37329 ft 518 kts
2026-04-13 16:01 62.65741 13.22366 37340 ft 517 kts
2026-04-13 16:01 62.72897 13.23851 37330 ft 516 kts
2026-04-13 16:02 62.80034 13.25338 37337 ft 514 kts
2026-04-13 16:02 62.87159 13.26829 37338 ft 513 kts
2026-04-13 16:03 62.94268 13.28324 37333 ft 512 kts
2026-04-13 16:03 63.01360 13.29825 37328 ft 512 kts
2026-04-13 16:04 63.08411 13.31322 37331 ft 511 kts
2026-04-13 16:04 63.15490 13.32832 37332 ft 510 kts
2026-04-13 16:05 63.22533 13.34343 37318 ft 508 kts
2026-04-13 16:05 63.29557 13.35858 37317 ft 506 kts
2026-04-13 16:06 63.36553 13.37373 37321 ft 504 kts
2026-04-13 16:06 63.43535 13.38892 37328 ft 504 kts
2026-04-13 16:07 63.50530 13.40423 37319 ft 505 kts
2026-04-13 16:07 63.57543 13.41964 37325 ft 507 kts
2026-04-13 16:08 63.64559 13.43514 37327 ft 508 kts
2026-04-13 16:08 63.71623 13.45082 37326 ft 510 kts
2026-04-13 16:09 63.78681 13.46656 37307 ft 512 kts
2026-04-13 16:09 63.85793 13.48252 37325 ft 515 kts
2026-04-13 16:10 63.92935 13.49862 37331 ft 516 kts
2026-04-13 16:10 64.00091 13.51484 37329 ft 517 kts
2026-04-13 16:11 64.07209 13.53106 37326 ft 518 kts
2026-04-13 16:11 64.14381 13.54748 37310 ft 517 kts
2026-04-13 16:12 64.21541 13.56396 37360 ft 517 kts
2026-04-13 16:12 64.28714 13.58054 37324 ft 518 kts
2026-04-13 16:13 64.35881 13.59721 37310 ft 517 kts
2026-04-13 16:13 64.42988 13.61383 37312 ft 515 kts
2026-04-13 16:14 64.50114 13.63058 37322 ft 514 kts
2026-04-13 16:14 64.57237 13.64740 37316 ft 513 kts
2026-04-13 16:15 64.64341 13.66426 37308 ft 512 kts
2026-04-13 16:15 64.71437 13.68120 37313 ft 512 kts
2026-04-13 16:16 64.78491 13.69813 37315 ft 511 kts
2026-04-13 16:16 64.85578 13.71524 37314 ft 511 kts
2026-04-13 16:17 64.92664 13.73242 37319 ft 511 kts
2026-04-13 16:17 64.99748 13.74968 37328 ft 512 kts
2026-04-13 16:18 65.06803 13.76697 37328 ft 513 kts
2026-04-13 16:18 65.13925 13.78453 37331 ft 514 kts
2026-04-13 16:19 65.21052 13.80220 37336 ft 516 kts
2026-04-13 16:19 65.28201 13.82000 37333 ft 516 kts
2026-04-13 16:20 65.34146 13.83489 37330 ft 517 kts
2026-04-13 16:20 65.42482 13.85586 37337 ft 518 kts
2026-04-13 16:21 65.48448 13.87097 37329 ft 518 kts
2026-04-13 16:21 65.55627 13.88923 37317 ft 518 kts
2026-04-13 16:22 65.62798 13.90757 37311 ft 518 kts
2026-04-13 16:23 65.73542 13.93544 37320 ft 516 kts
2026-04-13 16:23 65.80547 13.97216 37320 ft 514 kts 20°
2026-04-13 16:24 65.87252 14.03257 37332 ft 513 kts 22°
2026-04-13 16:24 65.93911 14.09575 37328 ft 514 kts 22°
2026-04-13 16:25 66.00562 14.15825 37326 ft 515 kts 22°
2026-04-13 16:25 66.07268 14.22065 37322 ft 515 kts 22°
2026-04-13 16:26 66.13987 14.28322 37323 ft 516 kts 22°
2026-04-13 16:26 66.20713 14.34625 37324 ft 517 kts 22°
2026-04-13 16:27 66.27437 14.40968 37313 ft 517 kts 22°
2026-04-13 16:27 66.34112 14.47304 37319 ft 517 kts 22°
2026-04-13 16:28 66.40831 14.53719 37318 ft 516 kts 22°
2026-04-13 16:28 66.47540 14.60160 37329 ft 516 kts 22°
2026-04-13 16:29 66.54250 14.66641 37350 ft 516 kts 23°
2026-04-13 16:29 66.60960 14.73158 37344 ft 518 kts 23°
2026-04-13 16:30 66.67683 14.79726 37357 ft 518 kts 23°
2026-04-13 16:30 66.74413 14.86340 37359 ft 519 kts 23°
2026-04-13 16:31 66.81152 14.93001 37359 ft 520 kts 23°
2026-04-13 16:31 66.87851 14.99663 37349 ft 519 kts 23°
2026-04-13 16:32 66.94584 15.06396 37344 ft 519 kts 23°
2026-04-13 16:32 67.01295 15.13148 37346 ft 517 kts 23°
2026-04-13 16:33 67.07987 15.19922 37347 ft 516 kts 23°
2026-04-13 16:33 67.14668 15.26725 37341 ft 516 kts 23°
2026-04-13 16:34 67.21330 15.33549 37338 ft 515 kts 23°
2026-04-13 16:34 67.27984 15.40406 37343 ft 515 kts 24°
2026-04-13 16:35 67.34640 15.47307 37346 ft 515 kts 24°
2026-04-13 16:35 67.41262 15.54213 37336 ft 516 kts 24°
2026-04-13 16:36 67.47829 15.61098 36998 ft 503 kts 24°
2026-04-13 16:36 67.51066 15.64509 36574 ft 498 kts 24°
2026-04-13 16:36 67.54263 15.67888 36187 ft 493 kts 24°
2026-04-13 16:36 67.57433 15.71246 35779 ft 489 kts 24°
2026-04-13 16:37 67.60575 15.74587 35346 ft 486 kts 24°
2026-04-13 16:37 67.63693 15.77911 34923 ft 482 kts 25°
2026-04-13 16:37 67.66799 15.81232 34527 ft 478 kts 25°
2026-04-13 16:37 67.69807 15.84456 34064 ft 470 kts 25°
2026-04-13 16:38 67.72823 15.87699 33659 ft 466 kts 25°
2026-04-13 16:38 67.75821 15.90933 33189 ft 463 kts 26°
2026-04-13 16:38 67.78794 15.94149 32786 ft 459 kts 26°
2026-04-13 16:38 67.81736 15.97335 32456 ft 454 kts 26°
2026-04-13 16:39 67.84647 16.00502 32030 ft 451 kts 27°
2026-04-13 16:39 67.87550 16.03668 31647 ft 448 kts 27°
2026-04-13 16:39 67.90390 16.06773 31235 ft 445 kts 27°
2026-04-13 16:39 67.93238 16.09922 30863 ft 441 kts 29°
2026-04-13 16:40 67.95968 16.13507 30460 ft 435 kts 34°
2026-04-13 16:40 67.98618 16.17330 30019 ft 432 kts 35°
2026-04-13 16:40 68.01238 16.21200 29590 ft 428 kts 35°
2026-04-13 16:40 68.03828 16.25051 29215 ft 425 kts 35°
2026-04-13 16:41 68.06411 16.28888 28801 ft 423 kts 35°
2026-04-13 16:41 68.08995 16.32721 28429 ft 427 kts 35°
2026-04-13 16:41 68.11618 16.36613 28070 ft 434 kts 34°
2026-04-13 16:41 68.14273 16.40553 27634 ft 435 kts 34°
2026-04-13 16:42 68.16920 16.44471 27211 ft 432 kts 34°
2026-04-13 16:42 68.19537 16.48344 26852 ft 427 kts 34°
2026-04-13 16:42 68.22132 16.52195 26476 ft 424 kts 33°
2026-04-13 16:42 68.24715 16.56035 26076 ft 422 kts 33°
2026-04-13 16:43 68.27268 16.59852 25705 ft 419 kts 33°
2026-04-13 16:43 68.29808 16.63663 25340 ft 416 kts 33°
2026-04-13 16:43 68.32341 16.67472 24950 ft 414 kts 33°
2026-04-13 16:43 68.34824 16.71216 24599 ft 412 kts 33°
2026-04-13 16:44 68.37327 16.75002 24198 ft 411 kts 32°
2026-04-13 16:44 68.39815 16.78771 23812 ft 409 kts 32°
2026-04-13 16:44 68.42291 16.82527 23382 ft 406 kts 32°
2026-04-13 16:44 68.44747 16.86263 22990 ft 403 kts 32°
2026-04-13 16:45 68.47189 16.89986 22635 ft 399 kts 32°
2026-04-13 16:45 68.49602 16.93676 22263 ft 396 kts 32°
2026-04-13 16:45 68.51995 16.97345 21883 ft 393 kts 32°
2026-04-13 16:45 68.54368 17.00996 21527 ft 391 kts 33°
2026-04-13 16:46 68.56726 17.04630 21150 ft 388 kts 33°
2026-04-13 16:46 68.59076 17.08261 20779 ft 385 kts 33°
2026-04-13 16:46 68.61403 17.11863 20407 ft 383 kts 33°
2026-04-13 16:46 68.63706 17.15442 20049 ft 380 kts 33°
2026-04-13 16:47 68.65997 17.19005 19683 ft 377 kts 33°
2026-04-13 16:47 68.68268 17.22545 19344 ft 375 kts 33°
2026-04-13 16:47 68.70535 17.26088 18958 ft 373 kts 33°
2026-04-13 16:47 68.72778 17.29601 18579 ft 369 kts 33°
2026-04-13 16:48 68.74971 17.33039 18234 ft 365 kts 33°
2026-04-13 16:48 68.77169 17.36503 17821 ft 363 kts 33°
2026-04-13 16:48 68.79348 17.39946 17441 ft 358 kts 33°
2026-04-13 16:48 68.81488 17.43332 17109 ft 351 kts 32°
2026-04-13 16:49 68.83592 17.46666 16780 ft 346 kts 33°
2026-04-13 16:49 68.85674 17.49969 16429 ft 343 kts 33°
2026-04-13 16:49 68.87733 17.53247 16096 ft 340 kts 33°
2026-04-13 16:49 68.89788 17.56529 15762 ft 345 kts 33°
2026-04-13 16:50 68.91910 17.59935 15443 ft 359 kts 33°
2026-04-13 16:50 68.94108 17.63468 15065 ft 366 kts 33°
2026-04-13 16:50 68.96300 17.66982 14641 ft 360 kts 32°
2026-04-13 16:50 68.98465 17.70463 14324 ft 363 kts 32°
2026-04-13 16:51 69.00693 17.74057 13940 ft 374 kts 32°
2026-04-13 16:51 69.02889 17.77606 13493 ft 365 kts 32°
2026-04-13 16:51 69.05104 17.81195 13154 ft 374 kts 32°
2026-04-13 16:51 69.07308 17.85193 12771 ft 381 kts 41°
2026-04-13 16:52 69.09246 17.90070 12367 ft 368 kts 47°
2026-04-13 16:52 69.10988 17.95080 11975 ft 347 kts 49°
2026-04-13 16:52 69.12622 17.99900 11656 ft 338 kts 49°
2026-04-13 16:52 69.14240 18.04629 11303 ft 334 kts 48°
2026-04-13 16:53 69.15855 18.09272 10974 ft 330 kts 47°
2026-04-13 16:53 69.17460 18.13831 10639 ft 326 kts 47°
2026-04-13 16:53 69.19041 18.18288 10464 ft 316 kts 47°
2026-04-13 16:53 69.20586 18.22633 10076 ft 312 kts 47°
2026-04-13 16:54 69.22084 18.26841 9685 ft 307 kts 47°
2026-04-13 16:54 69.23589 18.31078 9297 ft 305 kts 47°
2026-04-13 16:54 69.25088 18.35305 8926 ft 304 kts 46°
2026-04-13 16:54 69.26577 18.39506 8565 ft 302 kts 46°
2026-04-13 16:55 69.28058 18.43688 8216 ft 300 kts 46°
2026-04-13 16:55 69.29525 18.47842 7880 ft 297 kts 46°
2026-04-13 16:55 69.30964 18.51927 7615 ft 290 kts 46°
2026-04-13 16:55 69.32398 18.55876 7304 ft 284 kts 40°
2026-04-13 16:56 69.33988 18.59142 6996 ft 281 kts 33°
2026-04-13 16:56 69.35618 18.62127 6688 ft 277 kts 32°
2026-04-13 16:56 69.37227 18.65127 6300 ft 276 kts 33°
2026-04-13 16:56 69.38814 18.68170 5925 ft 274 kts 34°
2026-04-13 16:57 69.40368 18.71189 5680 ft 267 kts 34°
2026-04-13 16:57 69.41881 18.74120 5449 ft 259 kts 31°
2026-04-13 16:57 69.43519 18.75994 5207 ft 252 kts 12°
2026-04-13 16:57 69.45210 18.76926 5076 ft 241 kts
2026-04-13 16:58 69.46791 18.77724 5026 ft 226 kts
2026-04-13 16:58 69.48323 18.78328 4956 ft 225 kts 11°
2026-04-13 16:58 69.49809 18.79598 4886 ft 224 kts 14°
2026-04-13 16:58 69.51297 18.80623 4451 ft 213 kts 11°
2026-04-13 16:59 69.52740 18.81552 4034 ft 211 kts 12°
2026-04-13 16:59 69.54132 18.82469 3665 ft 199 kts 11°
2026-04-13 16:59 69.55433 18.83328 3321 ft 187 kts 11°
2026-04-13 16:59 69.56663 18.84136 2988 ft 174 kts 12°
2026-04-13 17:00 69.57797 18.84884 2650 ft 161 kts 12°
2026-04-13 17:00 69.58876 18.85597 2392 ft 157 kts 12°
2026-04-13 17:00 69.59928 18.86295 2113 ft 153 kts 13°
2026-04-13 17:00 69.60959 18.86973 1782 ft 151 kts 13°
2026-04-13 17:01 69.61966 18.87647 1503 ft 147 kts 13°
2026-04-13 17:01 69.62954 18.88301 1261 ft 145 kts 13°
2026-04-13 17:01 69.63926 18.88946 988 ft 142 kts 13°
2026-04-13 17:01 69.64884 18.89584 744 ft 141 kts 13°
2026-04-13 17:02 69.65847 18.90228 496 ft 143 kts 13°
2026-04-13 17:02 69.66831 18.90888 205 ft 145 kts 13°
2026-04-13 17:02 69.67802 18.91538 41 ft 136 kts 14°
2026-04-13 17:02 69.68509 18.92005 39 ft 59 kts 13°
2026-04-13 17:03 69.68670 18.92113 35 ft 18 kts 13°
2026-04-13 17:03 69.68749 18.92123 32 ft 10 kts 321°
2026-04-13 17:03 69.68771 18.91924 35 ft 11 kts 284°
2026-04-13 17:03 69.68762 18.91732 35 ft 11 kts 223°
2026-04-13 17:04 69.68693 18.91661 35 ft 11 kts 193°
2026-04-13 17:04 69.68621 18.91613 36 ft 11 kts 193°
2026-04-13 17:04 69.68549 18.91565 36 ft 11 kts 193°
2026-04-13 17:04 69.68477 18.91518 37 ft 11 kts 191°
2026-04-13 17:05 69.68404 18.91501 37 ft 11 kts 180°